createdAt,value
2023-04-26T00:01:08.840Z,99.90
2023-04-26T00:03:36.349Z,99.90
2023-04-26T00:06:08.769Z,99.90
2023-04-26T00:08:36.340Z,99.90
2023-04-26T00:11:06.063Z,99.90
2023-04-26T00:13:33.512Z,99.90
2023-04-26T00:16:00.879Z,99.90
2023-04-26T00:18:28.424Z,99.90
2023-04-26T00:20:55.887Z,99.90
2023-04-26T00:23:23.317Z,99.90
2023-04-26T00:25:50.944Z,99.90
2023-04-26T00:28:18.290Z,99.90
2023-04-26T00:30:48.842Z,99.90
2023-04-26T00:33:16.139Z,99.90
2023-04-26T00:35:43.504Z,99.90
2023-04-26T00:38:10.859Z,99.90
2023-04-26T00:40:38.210Z,99.90
2023-04-26T00:43:06.620Z,99.90
2023-04-26T00:45:35.472Z,99.90
2023-04-26T00:48:03.658Z,99.90
2023-04-26T00:50:32.557Z,99.90
2023-04-26T00:53:00.832Z,99.90
2023-04-26T00:55:28.413Z,99.90
2023-04-26T00:57:55.839Z,99.90
2023-04-26T01:00:23.267Z,99.90
2023-04-26T01:02:51.325Z,99.90
2023-04-26T01:05:19.045Z,99.90
2023-04-26T01:07:46.877Z,99.90
2023-04-26T01:10:14.228Z,99.90
2023-04-26T01:12:41.543Z,99.90
2023-04-26T01:15:11.409Z,99.90
2023-04-26T01:17:38.865Z,99.90
2023-04-26T01:20:09.914Z,99.90
2023-04-26T01:22:37.252Z,99.90
2023-04-26T01:25:07.773Z,99.90
2023-04-26T01:27:36.166Z,99.90
2023-04-26T01:30:03.837Z,99.90
2023-04-26T01:32:31.662Z,99.90
2023-04-26T01:35:00.611Z,99.90
2023-04-26T01:37:27.937Z,99.90
2023-04-26T01:39:55.270Z,99.90
2023-04-26T01:42:22.820Z,99.90
2023-04-26T01:44:50.176Z,99.90
2023-04-26T01:47:17.495Z,99.90
2023-04-26T01:49:45.956Z,99.90
2023-04-26T01:52:14.180Z,99.90
2023-04-26T01:54:41.489Z,99.90
2023-04-26T01:57:08.792Z,99.90
2023-04-26T01:59:36.511Z,99.90
2023-04-26T02:02:03.879Z,99.90
2023-04-26T02:04:31.299Z,99.90
2023-04-26T02:06:58.660Z,99.90
2023-04-26T02:09:26.045Z,99.90
2023-04-26T02:11:53.369Z,99.90
2023-04-26T02:14:20.783Z,99.90
2023-04-26T02:16:49.447Z,99.90
2023-04-26T02:19:16.881Z,99.90
2023-04-26T02:21:56.296Z,99.90
2023-04-26T02:24:24.501Z,99.90
2023-04-26T02:26:52.843Z,99.90
2023-04-26T02:29:29.393Z,99.90
2023-04-26T02:32:08.057Z,99.90
2023-04-26T02:34:36.022Z,99.90
2023-04-26T02:37:03.458Z,99.90
2023-04-26T02:39:31.643Z,99.90
2023-04-26T02:41:59.501Z,99.90
2023-04-26T02:44:30.601Z,99.90
2023-04-26T02:46:58.296Z,99.90
2023-04-26T02:49:26.008Z,99.90
2023-04-26T02:51:53.710Z,99.90
2023-04-26T02:54:21.390Z,99.90
2023-04-26T02:56:48.714Z,99.90
2023-04-26T02:59:16.377Z,99.90
2023-04-26T03:01:43.766Z,99.90
2023-04-26T03:04:11.448Z,99.90
2023-04-26T03:06:39.923Z,99.90
2023-04-26T03:09:07.297Z,99.90
2023-04-26T03:11:34.706Z,99.90
2023-04-26T03:14:02.770Z,99.90
2023-04-26T03:16:31.897Z,99.90
2023-04-26T03:18:59.290Z,99.90
2023-04-26T03:21:27.902Z,99.90
2023-04-26T03:23:55.310Z,99.90
2023-04-26T03:26:23.061Z,99.90
2023-04-26T03:28:51.484Z,99.90
2023-04-26T03:31:20.978Z,99.90
2023-04-26T03:33:48.501Z,99.90
2023-04-26T03:36:16.014Z,99.90
2023-04-26T03:38:43.535Z,99.90
2023-04-26T03:41:12.027Z,99.90
2023-04-26T03:43:39.367Z,99.90
2023-04-26T03:46:06.820Z,99.90
2023-04-26T03:48:34.163Z,99.90
2023-04-26T03:51:02.380Z,99.90
2023-04-26T03:53:29.795Z,99.90
2023-04-26T03:55:58.087Z,99.90
2023-04-26T03:58:26.418Z,99.90
2023-04-26T04:00:57.675Z,99.90
2023-04-26T04:03:25.231Z,99.90
2023-04-26T04:05:52.939Z,99.90
2023-04-26T04:08:20.208Z,99.90
2023-04-26T04:10:47.582Z,99.90
2023-04-26T04:13:14.859Z,99.90
2023-04-26T04:15:42.391Z,99.90
2023-04-26T04:18:09.840Z,99.90
2023-04-26T04:20:37.289Z,99.90
2023-04-26T04:23:07.717Z,99.90
2023-04-26T04:25:36.669Z,99.90
2023-04-26T04:28:08.614Z,99.90
2023-04-26T04:30:38.675Z,99.90
2023-04-26T04:33:06.597Z,99.90
2023-04-26T04:35:35.291Z,99.90
2023-04-26T04:38:05.515Z,99.90
2023-04-26T04:40:33.296Z,99.90
2023-04-26T04:43:03.378Z,99.90
2023-04-26T04:45:32.176Z,99.90
2023-04-26T04:48:00.756Z,99.90
2023-04-26T04:50:28.254Z,99.90
2023-04-26T04:52:56.422Z,99.90
2023-04-26T04:55:23.890Z,99.90
2023-04-26T04:57:52.313Z,99.90
2023-04-26T05:00:20.525Z,99.90
2023-04-26T05:02:56.888Z,99.90
2023-04-26T05:05:24.492Z,99.90
2023-04-26T05:07:51.840Z,99.90
2023-04-26T05:10:19.323Z,99.90
2023-04-26T05:12:49.100Z,99.90
2023-04-26T05:15:16.663Z,99.90
2023-04-26T05:17:44.811Z,99.90
2023-04-26T05:20:17.835Z,99.90
2023-04-26T05:22:45.473Z,99.90
2023-04-26T05:25:13.983Z,99.90
2023-04-26T05:27:42.309Z,99.90
2023-04-26T05:30:36.324Z,99.90
2023-04-26T05:33:19.563Z,99.90
2023-04-26T05:35:49.657Z,99.90
2023-04-26T05:38:17.035Z,99.90
2023-04-26T05:40:44.790Z,99.90
2023-04-26T05:43:12.096Z,99.90
2023-04-26T05:45:39.958Z,99.90
2023-04-26T05:48:07.457Z,99.90
2023-04-26T05:50:34.977Z,99.90
2023-04-26T05:53:02.433Z,99.90
2023-04-26T05:55:30.132Z,99.90
2023-04-26T05:57:58.453Z,99.90
2023-04-26T06:00:26.296Z,99.90
2023-04-26T06:02:54.300Z,99.90
2023-04-26T06:05:24.888Z,99.90
2023-04-26T06:07:53.209Z,99.90
2023-04-26T06:10:20.952Z,99.90
2023-04-26T06:12:48.529Z,99.90
2023-04-26T06:15:17.118Z,99.90
2023-04-26T06:17:44.874Z,99.90
2023-04-26T06:20:12.739Z,99.90
2023-04-26T06:22:40.101Z,99.90
2023-04-26T06:25:08.996Z,99.90
2023-04-26T06:27:39.231Z,99.70
2023-04-26T06:30:10.499Z,99.20
2023-04-26T06:32:42.298Z,99.60
2023-04-26T06:35:10.021Z,98.90
2023-04-26T06:37:38.600Z,98.70
2023-04-26T06:40:08.307Z,98.70
2023-04-26T06:42:36.768Z,97.00
2023-04-26T06:45:32.985Z,97.40
2023-04-26T06:48:03.018Z,96.90
2023-04-26T06:50:30.513Z,96.40
2023-04-26T06:52:58.168Z,96.60
2023-04-26T06:55:25.598Z,97.00
2023-04-26T06:57:52.938Z,95.70
2023-04-26T07:00:21.335Z,93.00
2023-04-26T07:02:48.860Z,90.90
2023-04-26T07:05:16.502Z,92.70
2023-04-26T07:07:51.889Z,91.30
2023-04-26T07:10:22.152Z,90.30
2023-04-26T07:12:49.616Z,90.80
2023-04-26T07:15:17.006Z,89.10
2023-04-26T07:17:44.618Z,85.50
2023-04-26T07:20:19.912Z,86.10
2023-04-26T07:22:47.765Z,85.50
2023-04-26T07:25:15.489Z,89.80
2023-04-26T07:27:48.139Z,91.40
2023-04-26T07:30:16.275Z,86.60
2023-04-26T07:32:43.688Z,86.60
2023-04-26T07:35:16.467Z,86.10
2023-04-26T07:37:52.569Z,89.60
2023-04-26T07:40:22.730Z,90.70
2023-04-26T07:42:55.910Z,90.80
2023-04-26T07:45:28.735Z,89.50
2023-04-26T07:47:56.694Z,80.50
2023-04-26T07:50:24.931Z,79.20
2023-04-26T07:52:52.493Z,81.50
2023-04-26T07:55:19.998Z,79.50
2023-04-26T07:57:47.693Z,76.00
2023-04-26T08:00:17.133Z,68.90
2023-04-26T08:02:46.800Z,71.30
2023-04-26T08:05:15.323Z,72.70
2023-04-26T08:07:43.617Z,75.30
2023-04-26T08:10:11.490Z,74.50
2023-04-26T08:12:43.467Z,74.70
2023-04-26T08:15:14.589Z,76.60
2023-04-26T08:17:45.681Z,79.40
2023-04-26T08:20:14.350Z,79.00
2023-04-26T08:22:44.133Z,81.30
2023-04-26T08:25:11.519Z,82.30
2023-04-26T08:27:39.908Z,86.70
2023-04-26T08:30:07.956Z,89.10
2023-04-26T08:32:35.555Z,88.50
2023-04-26T08:35:05.529Z,86.40
2023-04-26T08:37:33.437Z,84.50
2023-04-26T08:40:04.600Z,76.00
2023-04-26T08:42:32.981Z,78.90
2023-04-26T08:45:04.976Z,76.50
2023-04-26T08:47:49.938Z,79.10
2023-04-26T08:50:21.120Z,78.80
2023-04-26T08:52:52.368Z,81.50
2023-04-26T08:55:23.338Z,79.60
2023-04-26T08:57:51.119Z,74.30
2023-04-26T09:00:23.174Z,76.20
2023-04-26T09:02:52.707Z,80.50
2023-04-26T09:05:27.251Z,77.50
2023-04-26T09:08:02.556Z,76.40
2023-04-26T09:10:32.913Z,76.80
2023-04-26T09:13:00.483Z,76.20
2023-04-26T09:15:30.375Z,75.70
2023-04-26T09:18:18.173Z,76.70
2023-04-26T09:21:08.337Z,76.80
2023-04-26T09:23:36.110Z,78.00
2023-04-26T09:26:21.816Z,80.30
2023-04-26T09:28:50.847Z,75.10
2023-04-26T09:31:39.218Z,73.30
2023-04-26T09:34:07.128Z,68.30
2023-04-26T09:36:47.828Z,63.70
2023-04-26T09:39:40.498Z,69.10
2023-04-26T09:42:09.714Z,74.20
2023-04-26T09:44:40.604Z,68.30
2023-04-26T09:47:18.620Z,67.40
2023-04-26T09:49:55.286Z,63.70
2023-04-26T09:52:22.940Z,66.60
2023-04-26T09:54:53.978Z,68.90
2023-04-26T09:57:23.738Z,68.10
2023-04-26T09:59:56.360Z,69.90
2023-04-26T10:02:26.834Z,66.90
2023-04-26T10:04:58.351Z,69.40
2023-04-26T10:07:26.915Z,68.10
2023-04-26T10:09:55.802Z,71.20
2023-04-26T10:12:23.852Z,72.30
2023-04-26T10:14:51.605Z,73.70
2023-04-26T10:17:22.019Z,75.00
2023-04-26T10:19:55.196Z,73.00
2023-04-26T10:22:26.059Z,73.90
2023-04-26T10:24:57.106Z,74.70
2023-04-26T10:27:45.502Z,74.90
2023-04-26T10:30:23.282Z,70.60
2023-04-26T10:33:17.538Z,70.60
2023-04-26T10:36:10.108Z,67.60
2023-04-26T10:38:59.374Z,66.60
2023-04-26T10:41:32.218Z,67.30
2023-04-26T10:44:20.875Z,64.30
2023-04-26T10:46:52.950Z,67.00
2023-04-26T10:49:25.657Z,65.10
2023-04-26T10:52:13.948Z,67.00
2023-04-26T10:55:08.589Z,64.60
2023-04-26T10:57:51.330Z,67.60
2023-04-26T11:00:28.541Z,63.40
2023-04-26T11:03:02.748Z,65.50
2023-04-26T11:05:53.487Z,66.70
2023-04-26T11:08:25.676Z,64.50
2023-04-26T11:11:11.870Z,64.50
2023-04-26T11:13:44.151Z,67.00
2023-04-26T11:16:16.767Z,65.30
2023-04-26T11:18:50.237Z,70.40
2023-04-26T11:21:19.686Z,68.40
2023-04-26T11:23:59.706Z,64.90
2023-04-26T11:26:35.304Z,64.70
2023-04-26T11:29:03.605Z,68.30
2023-04-26T11:31:31.155Z,67.30
2023-04-26T11:34:05.295Z,65.00
2023-04-26T11:36:33.160Z,64.30
2023-04-26T11:39:02.749Z,63.30
2023-04-26T11:41:30.568Z,68.10
2023-04-26T11:44:00.197Z,69.20
2023-04-26T11:46:28.128Z,70.90
2023-04-26T11:48:58.437Z,68.00
2023-04-26T11:51:26.919Z,67.10
2023-04-26T11:53:54.558Z,70.10
2023-04-26T11:56:23.238Z,68.40
2023-04-26T11:58:52.562Z,68.00
2023-04-26T12:01:22.272Z,67.20
2023-04-26T12:03:52.014Z,67.60
2023-04-26T12:06:20.529Z,67.90
2023-04-26T12:08:52.386Z,63.40
2023-04-26T12:11:20.246Z,63.10
2023-04-26T12:13:47.858Z,61.70
2023-04-26T12:16:25.430Z,63.00
2023-04-26T12:18:55.191Z,59.80
2023-04-26T12:21:24.409Z,60.80
2023-04-26T12:23:52.541Z,64.50
2023-04-26T12:26:20.629Z,64.50
2023-04-26T12:28:48.333Z,65.20
2023-04-26T12:31:15.863Z,65.80
2023-04-26T12:33:43.401Z,67.20
2023-04-26T12:36:12.353Z,63.40
2023-04-26T12:38:40.846Z,64.00
2023-04-26T12:41:08.341Z,64.10
2023-04-26T12:43:36.839Z,61.90
2023-04-26T12:46:05.098Z,58.70
2023-04-26T12:48:32.843Z,63.00
2023-04-26T12:51:00.476Z,63.60
2023-04-26T12:53:28.047Z,64.90
2023-04-26T12:55:55.556Z,64.20
2023-04-26T12:58:23.248Z,65.70
2023-04-26T13:00:51.363Z,64.30
2023-04-26T13:03:19.047Z,63.70
2023-04-26T13:05:46.901Z,65.40
2023-04-26T13:08:14.843Z,66.40
2023-04-26T13:10:42.730Z,66.30
2023-04-26T13:13:10.714Z,65.00
2023-04-26T13:15:38.325Z,64.50
2023-04-26T13:18:06.255Z,66.40
2023-04-26T13:20:33.982Z,68.30
2023-04-26T13:23:01.423Z,65.10
2023-04-26T13:25:28.887Z,61.30
2023-04-26T13:27:56.364Z,61.20
2023-04-26T13:30:23.770Z,60.80
2023-04-26T13:32:51.603Z,62.60
2023-04-26T13:35:19.222Z,63.90
2023-04-26T13:37:47.057Z,62.30
2023-04-26T13:40:14.593Z,61.10
2023-04-26T13:42:42.744Z,63.00
2023-04-26T13:45:11.228Z,62.40
2023-04-26T13:47:38.746Z,64.30
2023-04-26T13:50:06.991Z,63.50
2023-04-26T13:52:37.356Z,61.40
2023-04-26T13:55:05.223Z,60.90
2023-04-26T13:57:32.711Z,61.40
2023-04-26T14:00:00.169Z,62.60
2023-04-26T14:02:28.309Z,62.50
2023-04-26T14:04:56.123Z,64.40
2023-04-26T14:07:26.914Z,62.70
2023-04-26T14:09:54.449Z,63.90
2023-04-26T14:12:21.843Z,63.10
2023-04-26T14:14:49.490Z,64.00
2023-04-26T14:17:17.008Z,65.20
2023-04-26T14:19:44.521Z,65.10
2023-04-26T14:22:13.105Z,63.00
2023-04-26T14:24:40.857Z,62.80
2023-04-26T14:27:08.356Z,64.80
2023-04-26T14:29:36.013Z,64.40
2023-04-26T14:32:03.601Z,65.10
2023-04-26T14:34:31.376Z,64.90
2023-04-26T14:37:01.737Z,64.10
2023-04-26T14:39:29.478Z,64.60
2023-04-26T14:41:57.909Z,67.30
2023-04-26T14:44:25.940Z,63.00
2023-04-26T14:46:53.720Z,64.30
2023-04-26T14:49:21.349Z,65.60
2023-04-26T14:51:49.812Z,63.20
2023-04-26T14:54:18.904Z,65.30
2023-04-26T14:56:46.465Z,65.70
2023-04-26T14:59:14.036Z,64.30
2023-04-26T15:01:41.654Z,62.80
2023-04-26T15:04:09.388Z,63.90
2023-04-26T15:06:37.231Z,63.70
2023-04-26T15:09:08.783Z,64.30
2023-04-26T15:11:36.637Z,67.30
2023-04-26T15:14:04.510Z,64.20
2023-04-26T15:16:32.156Z,64.30
2023-04-26T15:18:59.803Z,66.40
2023-04-26T15:21:28.931Z,66.50
2023-04-26T15:23:56.573Z,65.20
2023-04-26T15:26:24.144Z,65.90
2023-04-26T15:28:51.830Z,65.40
2023-04-26T15:31:20.763Z,65.40
2023-04-26T15:33:48.435Z,65.50
2023-04-26T15:36:20.368Z,66.80
2023-04-26T15:38:48.832Z,63.70
2023-04-26T15:41:16.493Z,66.90
2023-04-26T15:43:44.117Z,66.70
2023-04-26T15:46:15.042Z,64.20
2023-04-26T15:48:42.573Z,65.00
2023-04-26T15:51:10.135Z,64.50
2023-04-26T15:53:43.184Z,66.60
2023-04-26T15:56:18.131Z,66.60
2023-04-26T15:58:46.887Z,67.80
2023-04-26T16:01:14.964Z,67.00
2023-04-26T16:03:46.388Z,65.10
2023-04-26T16:06:15.065Z,66.20
2023-04-26T16:08:43.150Z,69.20
2023-04-26T16:11:10.702Z,70.80
2023-04-26T16:13:38.344Z,69.90
2023-04-26T16:16:10.901Z,69.10
2023-04-26T16:18:43.885Z,69.40
2023-04-26T16:21:13.019Z,69.80
2023-04-26T16:23:44.340Z,69.30
2023-04-26T16:26:12.139Z,69.00
2023-04-26T16:28:39.705Z,67.80
2023-04-26T16:31:07.168Z,67.30
2023-04-26T16:33:34.736Z,67.00
2023-04-26T16:36:02.194Z,66.30
2023-04-26T16:38:29.651Z,67.60
2023-04-26T16:40:59.022Z,67.20
2023-04-26T16:43:27.341Z,67.60
2023-04-26T16:45:59.262Z,68.10
2023-04-26T16:48:27.340Z,70.10
2023-04-26T16:50:54.857Z,68.70
2023-04-26T16:53:22.924Z,67.60
2023-04-26T16:55:51.292Z,68.70
2023-04-26T16:58:18.811Z,68.50
2023-04-26T17:00:47.095Z,69.90
2023-04-26T17:03:15.360Z,69.70
2023-04-26T17:05:47.128Z,69.80
2023-04-26T17:08:16.035Z,69.20
2023-04-26T17:10:47.059Z,70.30
2023-04-26T17:13:15.271Z,70.00
2023-04-26T17:15:43.352Z,70.20
2023-04-26T17:18:11.128Z,69.50
2023-04-26T17:20:38.744Z,68.50
2023-04-26T17:23:07.923Z,69.70
2023-04-26T17:25:35.870Z,70.10
2023-04-26T17:28:03.660Z,69.80
2023-04-26T17:30:31.138Z,70.60
2023-04-26T17:32:58.601Z,70.90
2023-04-26T17:35:26.318Z,72.70
2023-04-26T17:37:53.737Z,71.30
2023-04-26T17:40:21.357Z,72.50
2023-04-26T17:42:48.790Z,72.60
2023-04-26T17:45:16.477Z,71.60
2023-04-26T17:47:45.500Z,72.20
2023-04-26T17:50:13.466Z,73.80
2023-04-26T17:52:41.033Z,72.90
2023-04-26T17:55:10.166Z,73.20
2023-04-26T17:57:37.821Z,73.00
2023-04-26T18:00:12.827Z,73.90
2023-04-26T18:02:43.289Z,73.20
2023-04-26T18:05:11.351Z,73.20
2023-04-26T18:07:38.829Z,75.40
2023-04-26T18:10:07.326Z,74.80
2023-04-26T18:12:36.269Z,75.90
2023-04-26T18:15:04.233Z,76.60
2023-04-26T18:17:31.901Z,78.00
2023-04-26T18:19:59.461Z,79.10
2023-04-26T18:22:26.942Z,81.40
2023-04-26T18:24:54.455Z,80.70
2023-04-26T18:27:22.125Z,81.30
2023-04-26T18:29:49.668Z,82.80
2023-04-26T18:32:17.176Z,83.70
2023-04-26T18:34:45.022Z,85.70
2023-04-26T18:37:12.582Z,86.40
2023-04-26T18:39:40.057Z,86.70
2023-04-26T18:42:07.935Z,88.00
2023-04-26T18:44:35.395Z,89.00
2023-04-26T18:47:02.730Z,90.50
2023-04-26T18:49:30.759Z,91.10
2023-04-26T18:51:58.331Z,92.20
2023-04-26T18:54:26.412Z,91.80
2023-04-26T18:56:54.366Z,92.40
2023-04-26T18:59:21.953Z,92.40
2023-04-26T19:01:49.563Z,92.90
2023-04-26T19:04:17.263Z,93.70
2023-04-26T19:06:44.933Z,94.50
2023-04-26T19:09:13.054Z,95.50
2023-04-26T19:11:40.620Z,95.80
2023-04-26T19:14:08.036Z,96.20
2023-04-26T19:16:35.711Z,97.20
2023-04-26T19:19:03.388Z,97.60
2023-04-26T19:21:32.143Z,98.00
2023-04-26T19:23:59.651Z,98.30
2023-04-26T19:26:27.175Z,98.70
2023-04-26T19:28:55.900Z,99.10
2023-04-26T19:31:23.905Z,99.50
2023-04-26T19:33:51.593Z,99.50
2023-04-26T19:36:19.151Z,99.80
2023-04-26T19:38:48.569Z,99.90
2023-04-26T19:41:16.104Z,99.90
2023-04-26T19:43:43.548Z,99.90
2023-04-26T19:46:12.735Z,99.90
2023-04-26T19:48:41.021Z,99.90
2023-04-26T19:51:08.659Z,99.90
2023-04-26T19:53:36.260Z,99.90
2023-04-26T19:56:03.734Z,99.90
2023-04-26T19:58:32.477Z,99.90
2023-04-26T20:00:59.999Z,99.90
2023-04-26T20:03:27.770Z,99.90
2023-04-26T20:05:55.688Z,99.90
2023-04-26T20:08:23.101Z,99.90
2023-04-26T20:10:50.851Z,99.90
2023-04-26T20:13:18.741Z,99.90
2023-04-26T20:15:46.307Z,99.90
2023-04-26T20:18:13.688Z,99.90
2023-04-26T20:20:41.239Z,99.90
2023-04-26T20:23:08.648Z,99.90
2023-04-26T20:25:36.349Z,99.90
2023-04-26T20:28:04.333Z,99.90
2023-04-26T20:30:33.930Z,99.90
2023-04-26T20:33:01.564Z,99.90
2023-04-26T20:35:29.150Z,99.90
2023-04-26T20:37:56.670Z,99.90
2023-04-26T20:40:24.056Z,99.90
2023-04-26T20:42:51.724Z,99.90
2023-04-26T20:45:19.411Z,99.90
2023-04-26T20:47:47.334Z,99.90
2023-04-26T20:50:14.887Z,99.90
2023-04-26T20:52:42.429Z,99.90
2023-04-26T20:55:10.267Z,99.90
2023-04-26T20:57:38.676Z,99.90
2023-04-26T21:00:07.906Z,99.90
2023-04-26T21:02:35.621Z,99.90
2023-04-26T21:05:04.743Z,99.90
2023-04-26T21:07:33.250Z,99.90
2023-04-26T21:10:00.832Z,99.90
2023-04-26T21:12:28.494Z,99.90
2023-04-26T21:14:55.905Z,99.90
2023-04-26T21:17:23.594Z,99.90
2023-04-26T21:19:51.863Z,99.90
2023-04-26T21:22:19.347Z,99.90
2023-04-26T21:24:46.792Z,99.90
2023-04-26T21:27:14.322Z,99.90
2023-04-26T21:29:41.771Z,99.90
2023-04-26T21:32:09.209Z,99.90
2023-04-26T21:34:37.409Z,99.90
2023-04-26T21:37:04.937Z,99.90
2023-04-26T21:39:32.451Z,99.90
2023-04-26T21:41:59.958Z,99.90
2023-04-26T21:44:27.477Z,99.90
2023-04-26T21:46:55.082Z,99.90
2023-04-26T21:49:22.615Z,99.90
2023-04-26T21:51:50.099Z,99.90
2023-04-26T21:54:17.528Z,99.90
2023-04-26T21:56:45.035Z,99.90
2023-04-26T21:59:14.230Z,99.90
2023-04-26T22:01:41.752Z,99.90
2023-04-26T22:04:09.353Z,99.90
2023-04-26T22:06:36.909Z,99.90
2023-04-26T22:09:05.019Z,99.90
2023-04-26T22:11:32.433Z,99.90
2023-04-26T22:14:00.004Z,99.90
2023-04-26T22:16:27.532Z,99.90
2023-04-26T22:18:55.052Z,99.90
2023-04-26T22:21:22.546Z,99.90
2023-04-26T22:23:49.991Z,99.90
2023-04-26T22:26:17.452Z,99.90
2023-04-26T22:28:46.307Z,99.90
2023-04-26T22:31:13.649Z,99.90
2023-04-26T22:33:41.210Z,99.90
2023-04-26T22:36:09.325Z,99.90
2023-04-26T22:38:36.732Z,99.90
2023-04-26T22:41:07.143Z,99.90
2023-04-26T22:43:35.395Z,99.90
2023-04-26T22:46:03.199Z,99.90
2023-04-26T22:48:30.945Z,99.90
2023-04-26T22:51:00.050Z,99.90
2023-04-26T22:53:27.499Z,99.90
2023-04-26T22:55:54.905Z,99.90
2023-04-26T22:58:22.432Z,99.90
2023-04-26T23:00:49.875Z,99.90
2023-04-26T23:03:17.503Z,99.90
2023-04-26T23:05:45.715Z,99.90
2023-04-26T23:08:13.375Z,99.90
2023-04-26T23:10:40.818Z,99.90
2023-04-26T23:13:09.171Z,99.90
2023-04-26T23:15:37.087Z,99.90
2023-04-26T23:18:05.403Z,99.90
2023-04-26T23:20:32.942Z,99.90
2023-04-26T23:23:00.411Z,99.90
2023-04-26T23:25:27.915Z,99.90
2023-04-26T23:27:55.564Z,99.90
2023-04-26T23:30:23.108Z,99.90
2023-04-26T23:32:50.793Z,99.90
2023-04-26T23:35:18.225Z,99.90
2023-04-26T23:37:45.838Z,99.90
2023-04-26T23:40:13.775Z,99.90
2023-04-26T23:42:41.517Z,99.90
2023-04-26T23:45:10.032Z,99.90
2023-04-26T23:47:37.608Z,99.90
2023-04-26T23:50:09.015Z,99.90
2023-04-26T23:52:36.549Z,99.90
2023-04-26T23:55:04.387Z,99.90
2023-04-26T23:57:32.384Z,99.90
